Terminal Aerodrome Forecast
Issued by NWS

Home | Current Version | Previous Version | Text Only | Print | Product List | Glossary On
Versions: 1 2 3 4 5 6 7 8 9 10 11 12 13 14 15 16 17 18 19 20 21 22 23 24 25 26
000
FTUS41 KPBZ 040200 AAB
TAFHLG
TAF AMD
KHLG 040236Z 0403/0424 25012KT 5SM -RA OVC009 WS020/23050KT
     FM040500 27008KT 2SM -RA OVC007
     FM041200 28005KT 2SM -SN OVC007
     FM041600 29005KT 5SM BR OVC010
     FM042300 32008KT 2SM -SN BR OVC007=

USA.gov is the U.S. government's official web portal to all federal, state and local government web resources and services.